sensor_id;sensor_type;location;lat;lon;timestamp;temperature;humidity
63317;DHT22;49822;41.468;13.560;2022-09-14T00:01:28;18.60;76.70
63317;DHT22;49822;41.468;13.560;2022-09-14T00:04:01;18.80;76.00
63317;DHT22;49822;41.468;13.560;2022-09-14T00:06:30;18.90;75.20
63317;DHT22;49822;41.468;13.560;2022-09-14T00:08:58;19.00;75.00
63317;DHT22;49822;41.468;13.560;2022-09-14T00:11:29;18.90;75.00
63317;DHT22;49822;41.468;13.560;2022-09-14T00:13:58;18.90;75.30
63317;DHT22;49822;41.468;13.560;2022-09-14T00:16:29;18.90;75.10
63317;DHT22;49822;41.468;13.560;2022-09-14T00:19:02;18.80;75.00
63317;DHT22;49822;41.468;13.560;2022-09-14T00:21:34;18.60;75.70
63317;DHT22;49822;41.468;13.560;2022-09-14T00:24:03;18.30;77.20
63317;DHT22;49822;41.468;13.560;2022-09-14T00:26:31;17.90;79.20
63317;DHT22;49822;41.468;13.560;2022-09-14T00:28:59;17.80;80.00
63317;DHT22;49822;41.468;13.560;2022-09-14T00:31:35;17.80;80.00
63317;DHT22;49822;41.468;13.560;2022-09-14T00:34:05;18.00;79.20
63317;DHT22;49822;41.468;13.560;2022-09-14T00:36:37;18.10;78.60
63317;DHT22;49822;41.468;13.560;2022-09-14T00:39:04;18.20;78.50
63317;DHT22;49822;41.468;13.560;2022-09-14T00:41:35;18.30;77.80
63317;DHT22;49822;41.468;13.560;2022-09-14T00:44:04;18.30;77.70
63317;DHT22;49822;41.468;13.560;2022-09-14T00:46:42;18.20;77.80
63317;DHT22;49822;41.468;13.560;2022-09-14T00:51:44;18.20;77.60
63317;DHT22;49822;41.468;13.560;2022-09-14T00:54:13;18.20;77.40
63317;DHT22;49822;41.468;13.560;2022-09-14T00:56:41;18.10;77.70
63317;DHT22;49822;41.468;13.560;2022-09-14T00:59:18;18.20;76.90
63317;DHT22;49822;41.468;13.560;2022-09-14T01:01:46;18.20;76.90
63317;DHT22;49822;41.468;13.560;2022-09-14T01:04:14;17.70;79.40
63317;DHT22;49822;41.468;13.560;2022-09-14T01:15:10;17.80;80.40
63317;DHT22;49822;41.468;13.560;2022-09-14T01:17:55;18.00;79.00
63317;DHT22;49822;41.468;13.560;2022-09-14T01:20:54;18.00;78.30
63317;DHT22;49822;41.468;13.560;2022-09-14T01:29:15;18.00;78.60
63317;DHT22;49822;41.468;13.560;2022-09-14T01:31:48;17.90;78.80
63317;DHT22;49822;41.468;13.560;2022-09-14T01:34:23;18.00;78.40
63317;DHT22;49822;41.468;13.560;2022-09-14T01:37:43;18.10;77.70
63317;DHT22;49822;41.468;13.560;2022-09-14T01:39:44;18.20;77.20
63317;DHT22;49822;41.468;13.560;2022-09-14T01:42:14;18.10;77.30
63317;DHT22;49822;41.468;13.560;2022-09-14T01:44:47;18.10;77.80
63317;DHT22;49822;41.468;13.560;2022-09-14T01:47:19;18.00;77.90
63317;DHT22;49822;41.468;13.560;2022-09-14T01:49:52;18.00;78.20
63317;DHT22;49822;41.468;13.560;2022-09-14T01:52:34;17.80;78.50
63317;DHT22;49822;41.468;13.560;2022-09-14T01:55:08;17.60;78.70
63317;DHT22;49822;41.468;13.560;2022-09-14T01:58:01;17.00;81.80
63317;DHT22;49822;41.468;13.560;2022-09-14T02:00:32;17.00;82.50
63317;DHT22;49822;41.468;13.560;2022-09-14T02:03:46;17.30;81.50
63317;DHT22;49822;41.468;13.560;2022-09-14T02:06:12;17.50;80.50
63317;DHT22;49822;41.468;13.560;2022-09-14T02:08:42;17.80;79.20
63317;DHT22;49822;41.468;13.560;2022-09-14T02:11:09;17.80;78.10
63317;DHT22;49822;41.468;13.560;2022-09-14T02:13:37;17.90;77.90
63317;DHT22;49822;41.468;13.560;2022-09-14T02:16:04;17.90;77.90
63317;DHT22;49822;41.468;13.560;2022-09-14T02:18:32;17.80;78.50
63317;DHT22;49822;41.468;13.560;2022-09-14T02:21:03;17.90;78.10
63317;DHT22;49822;41.468;13.560;2022-09-14T02:23:34;18.00;77.00
63317;DHT22;49822;41.468;13.560;2022-09-14T02:26:02;18.00;76.60
63317;DHT22;49822;41.468;13.560;2022-09-14T02:28:29;18.00;77.00
63317;DHT22;49822;41.468;13.560;2022-09-14T02:34:04;17.90;77.50
63317;DHT22;49822;41.468;13.560;2022-09-14T02:36:47;18.00;77.50
63317;DHT22;49822;41.468;13.560;2022-09-14T02:50:23;17.90;76.80
63317;DHT22;49822;41.468;13.560;2022-09-14T02:53:05;17.80;77.30
63317;DHT22;49822;41.468;13.560;2022-09-14T02:55:38;17.70;77.90
63317;DHT22;49822;41.468;13.560;2022-09-14T02:58:09;17.70;77.70
63317;DHT22;49822;41.468;13.560;2022-09-14T03:00:43;17.70;77.30
63317;DHT22;49822;41.468;13.560;2022-09-14T03:03:14;17.70;76.70
63317;DHT22;49822;41.468;13.560;2022-09-14T03:05:41;17.40;78.10
63317;DHT22;49822;41.468;13.560;2022-09-14T03:08:10;17.20;79.20
63317;DHT22;49822;41.468;13.560;2022-09-14T03:10:41;17.20;80.00
63317;DHT22;49822;41.468;13.560;2022-09-14T03:13:11;17.20;80.00
63317;DHT22;49822;41.468;13.560;2022-09-14T03:15:40;17.20;80.10
63317;DHT22;49822;41.468;13.560;2022-09-14T03:18:10;17.00;80.80
63317;DHT22;49822;41.468;13.560;2022-09-14T03:20:40;17.00;80.70
63317;DHT22;49822;41.468;13.560;2022-09-14T03:23:08;17.20;80.10
63317;DHT22;49822;41.468;13.560;2022-09-14T03:25:38;17.20;79.90
63317;DHT22;49822;41.468;13.560;2022-09-14T03:28:06;17.10;80.40
63317;DHT22;49822;41.468;13.560;2022-09-14T03:30:35;17.10;80.70
63317;DHT22;49822;41.468;13.560;2022-09-14T03:33:04;17.20;80.00
63317;DHT22;49822;41.468;13.560;2022-09-14T03:35:32;17.30;79.40
63317;DHT22;49822;41.468;13.560;2022-09-14T03:38:00;17.40;79.00
63317;DHT22;49822;41.468;13.560;2022-09-14T03:40:29;17.50;78.40
63317;DHT22;49822;41.468;13.560;2022-09-14T03:42:57;17.40;78.80
63317;DHT22;49822;41.468;13.560;2022-09-14T03:45:26;17.20;79.90
63317;DHT22;49822;41.468;13.560;2022-09-14T03:47:57;17.20;80.30
63317;DHT22;49822;41.468;13.560;2022-09-14T03:50:24;17.10;78.70
63317;DHT22;49822;41.468;13.560;2022-09-14T03:52:51;16.80;81.00
63317;DHT22;49822;41.468;13.560;2022-09-14T03:55:20;16.80;80.70
63317;DHT22;49822;41.468;13.560;2022-09-14T03:57:54;16.90;80.70
63317;DHT22;49822;41.468;13.560;2022-09-14T04:00:26;17.00;79.80
63317;DHT22;49822;41.468;13.560;2022-09-14T04:03:05;17.10;79.00
63317;DHT22;49822;41.468;13.560;2022-09-14T04:05:34;17.00;79.80
63317;DHT22;49822;41.468;13.560;2022-09-14T04:08:03;17.00;80.20
63317;DHT22;49822;41.468;13.560;2022-09-14T04:10:33;17.00;79.70
63317;DHT22;49822;41.468;13.560;2022-09-14T04:13:02;16.70;80.90
63317;DHT22;49822;41.468;13.560;2022-09-14T04:15:36;16.50;82.50
63317;DHT22;49822;41.468;13.560;2022-09-14T04:18:16;16.60;82.50
63317;DHT22;49822;41.468;13.560;2022-09-14T04:20:54;16.70;81.50
63317;DHT22;49822;41.468;13.560;2022-09-14T04:23:24;16.90;80.00
63317;DHT22;49822;41.468;13.560;2022-09-14T04:25:55;16.50;81.40
63317;DHT22;49822;41.468;13.560;2022-09-14T04:28:26;16.20;83.70
63317;DHT22;49822;41.468;13.560;2022-09-14T04:30:58;16.40;83.30
63317;DHT22;49822;41.468;13.560;2022-09-14T04:33:29;16.70;82.10
63317;DHT22;49822;41.468;13.560;2022-09-14T04:36:01;16.60;80.40
63317;DHT22;49822;41.468;13.560;2022-09-14T04:38:30;16.50;81.70
63317;DHT22;49822;41.468;13.560;2022-09-14T04:40:59;16.60;81.30
63317;DHT22;49822;41.468;13.560;2022-09-14T04:43:28;16.70;80.60
63317;DHT22;49822;41.468;13.560;2022-09-14T04:46:01;16.70;81.20
63317;DHT22;49822;41.468;13.560;2022-09-14T04:48:34;16.80;80.80
63317;DHT22;49822;41.468;13.560;2022-09-14T04:51:08;16.80;79.90
63317;DHT22;49822;41.468;13.560;2022-09-14T04:53:37;16.50;81.40
63317;DHT22;49822;41.468;13.560;2022-09-14T04:56:24;16.40;82.40
63317;DHT22;49822;41.468;13.560;2022-09-14T04:58:55;16.00;84.70
63317;DHT22;49822;41.468;13.560;2022-09-14T05:01:29;16.00;85.40
63317;DHT22;49822;41.468;13.560;2022-09-14T05:03:57;16.00;85.50
63317;DHT22;49822;41.468;13.560;2022-09-14T05:06:28;16.20;83.90
63317;DHT22;49822;41.468;13.560;2022-09-14T05:08:57;16.50;82.60
63317;DHT22;49822;41.468;13.560;2022-09-14T05:11:30;16.70;81.60
63317;DHT22;49822;41.468;13.560;2022-09-14T05:13:59;16.90;80.70
63317;DHT22;49822;41.468;13.560;2022-09-14T05:16:33;16.90;80.40
63317;DHT22;49822;41.468;13.560;2022-09-14T05:19:04;16.90;80.10
63317;DHT22;49822;41.468;13.560;2022-09-14T05:21:34;16.90;80.70
63317;DHT22;49822;41.468;13.560;2022-09-14T05:24:10;17.00;80.40
63317;DHT22;49822;41.468;13.560;2022-09-14T05:26:40;17.10;79.60
63317;DHT22;49822;41.468;13.560;2022-09-14T05:29:16;17.20;79.00
63317;DHT22;49822;41.468;13.560;2022-09-14T05:31:45;17.40;78.70
63317;DHT22;49822;41.468;13.560;2022-09-14T05:34:13;17.50;79.60
63317;DHT22;49822;41.468;13.560;2022-09-14T05:36:41;17.50;78.90
63317;DHT22;49822;41.468;13.560;2022-09-14T05:39:11;17.60;78.40
63317;DHT22;49822;41.468;13.560;2022-09-14T05:41:39;17.60;78.10
63317;DHT22;49822;41.468;13.560;2022-09-14T05:44:06;17.60;77.40
63317;DHT22;49822;41.468;13.560;2022-09-14T05:46:34;17.60;77.90
63317;DHT22;49822;41.468;13.560;2022-09-14T05:49:02;17.80;77.20
63317;DHT22;49822;41.468;13.560;2022-09-14T05:51:29;18.00;77.50
63317;DHT22;49822;41.468;13.560;2022-09-14T05:53:57;18.00;77.40
63317;DHT22;49822;41.468;13.560;2022-09-14T05:56:27;18.00;77.10
63317;DHT22;49822;41.468;13.560;2022-09-14T05:58:54;18.10;77.40
63317;DHT22;49822;41.468;13.560;2022-09-14T06:01:30;18.10;77.10
63317;DHT22;49822;41.468;13.560;2022-09-14T06:04:01;18.20;77.20
63317;DHT22;49822;41.468;13.560;2022-09-14T06:06:30;18.30;76.50
63317;DHT22;49822;41.468;13.560;2022-09-14T06:08:58;18.40;75.80
63317;DHT22;49822;41.468;13.560;2022-09-14T06:11:28;18.30;76.50
63317;DHT22;49822;41.468;13.560;2022-09-14T06:13:57;18.10;77.60
63317;DHT22;49822;41.468;13.560;2022-09-14T06:16:26;18.20;77.50
63317;DHT22;49822;41.468;13.560;2022-09-14T06:18:55;18.40;77.30
63317;DHT22;49822;41.468;13.560;2022-09-14T06:21:28;18.60;77.00
63317;DHT22;49822;41.468;13.560;2022-09-14T06:23:56;18.80;76.20
63317;DHT22;49822;41.468;13.560;2022-09-14T06:26:24;19.00;75.40
63317;DHT22;49822;41.468;13.560;2022-09-14T06:28:55;19.00;75.70
63317;DHT22;49822;41.468;13.560;2022-09-14T06:31:22;19.10;74.10
63317;DHT22;49822;41.468;13.560;2022-09-14T06:33:52;19.20;73.60
63317;DHT22;49822;41.468;13.560;2022-09-14T06:36:24;19.20;73.00
63317;DHT22;49822;41.468;13.560;2022-09-14T06:38:53;19.20;73.60
63317;DHT22;49822;41.468;13.560;2022-09-14T06:41:23;19.40;73.70
63317;DHT22;49822;41.468;13.560;2022-09-14T06:43:58;19.50;73.20
63317;DHT22;49822;41.468;13.560;2022-09-14T06:46:30;19.50;72.80
63317;DHT22;49822;41.468;13.560;2022-09-14T06:49:06;19.50;71.90
63317;DHT22;49822;41.468;13.560;2022-09-14T06:51:39;19.50;72.20
63317;DHT22;49822;41.468;13.560;2022-09-14T06:54:14;19.50;71.60
63317;DHT22;49822;41.468;13.560;2022-09-14T06:56:44;19.70;71.00
63317;DHT22;49822;41.468;13.560;2022-09-14T06:59:16;19.90;69.60
63317;DHT22;49822;41.468;13.560;2022-09-14T07:02:11;19.90;70.30
63317;DHT22;49822;41.468;13.560;2022-09-14T07:04:42;20.10;70.50
63317;DHT22;49822;41.468;13.560;2022-09-14T07:07:16;20.30;70.10
63317;DHT22;49822;41.468;13.560;2022-09-14T07:09:43;20.50;68.60
63317;DHT22;49822;41.468;13.560;2022-09-14T07:12:11;20.50;68.40
63317;DHT22;49822;41.468;13.560;2022-09-14T07:14:38;20.70;67.30
63317;DHT22;49822;41.468;13.560;2022-09-14T07:17:05;20.80;67.30
63317;DHT22;49822;41.468;13.560;2022-09-14T07:19:33;21.00;66.80
63317;DHT22;49822;41.468;13.560;2022-09-14T07:22:00;21.10;65.40
63317;DHT22;49822;41.468;13.560;2022-09-14T07:24:28;21.10;66.30
63317;DHT22;49822;41.468;13.560;2022-09-14T07:26:55;21.30;66.30
63317;DHT22;49822;41.468;13.560;2022-09-14T07:29:22;21.50;65.50
63317;DHT22;49822;41.468;13.560;2022-09-14T07:31:52;21.50;65.80
63317;DHT22;49822;41.468;13.560;2022-09-14T07:34:20;21.70;64.70
63317;DHT22;49822;41.468;13.560;2022-09-14T07:36:47;21.90;65.00
63317;DHT22;49822;41.468;13.560;2022-09-14T07:39:16;22.00;64.50
63317;DHT22;49822;41.468;13.560;2022-09-14T07:41:45;22.10;63.60
63317;DHT22;49822;41.468;13.560;2022-09-14T07:44:14;22.20;64.40
63317;DHT22;49822;41.468;13.560;2022-09-14T07:46:44;22.30;63.90
63317;DHT22;49822;41.468;13.560;2022-09-14T07:49:13;22.40;63.60
63317;DHT22;49822;41.468;13.560;2022-09-14T07:51:41;22.50;63.30
63317;DHT22;49822;41.468;13.560;2022-09-14T07:54:12;22.50;63.60
63317;DHT22;49822;41.468;13.560;2022-09-14T07:56:40;22.60;64.00
63317;DHT22;49822;41.468;13.560;2022-09-14T07:59:15;22.70;62.50
63317;DHT22;49822;41.468;13.560;2022-09-14T08:02:04;22.70;63.20
63317;DHT22;49822;41.468;13.560;2022-09-14T08:04:34;22.70;63.10
63317;DHT22;49822;41.468;13.560;2022-09-14T08:07:02;22.70;61.50
63317;DHT22;49822;41.468;13.560;2022-09-14T08:09:30;22.80;63.00
63317;DHT22;49822;41.468;13.560;2022-09-14T08:11:57;23.00;62.00
63317;DHT22;49822;41.468;13.560;2022-09-14T08:14:24;23.20;60.70
63317;DHT22;49822;41.468;13.560;2022-09-14T08:16:51;23.20;61.70
63317;DHT22;49822;41.468;13.560;2022-09-14T08:19:19;23.20;60.10
63317;DHT22;49822;41.468;13.560;2022-09-14T08:21:47;23.10;60.10
63317;DHT22;49822;41.468;13.560;2022-09-14T08:24:17;23.10;61.50
63317;DHT22;49822;41.468;13.560;2022-09-14T08:26:45;23.30;60.10
63317;DHT22;49822;41.468;13.560;2022-09-14T08:29:17;23.50;60.10
63317;DHT22;49822;41.468;13.560;2022-09-14T08:31:46;23.50;60.80
63317;DHT22;49822;41.468;13.560;2022-09-14T08:34:14;23.50;60.20
63317;DHT22;49822;41.468;13.560;2022-09-14T08:36:44;23.70;59.90
63317;DHT22;49822;41.468;13.560;2022-09-14T08:39:20;23.80;60.00
63317;DHT22;49822;41.468;13.560;2022-09-14T08:41:58;24.00;60.40
63317;DHT22;49822;41.468;13.560;2022-09-14T08:47:03;24.20;58.70
63317;DHT22;49822;41.468;13.560;2022-09-14T08:52:30;24.40;58.80
63317;DHT22;49822;41.468;13.560;2022-09-14T08:55:02;24.50;59.10
63317;DHT22;49822;41.468;13.560;2022-09-14T08:57:49;24.60;57.70
63317;DHT22;49822;41.468;13.560;2022-09-14T09:00:24;24.60;58.50
63317;DHT22;49822;41.468;13.560;2022-09-14T09:06:16;24.80;57.00
63317;DHT22;49822;41.468;13.560;2022-09-14T09:11:41;25.00;57.10
63317;DHT22;49822;41.468;13.560;2022-09-14T09:14:37;25.20;55.50
63317;DHT22;49822;41.468;13.560;2022-09-14T09:17:30;25.10;55.30
63317;DHT22;49822;41.468;13.560;2022-09-14T09:22:43;25.30;54.10
63317;DHT22;49822;41.468;13.560;2022-09-14T09:25:23;25.20;53.30
63317;DHT22;49822;41.468;13.560;2022-09-14T09:28:09;25.30;54.00
63317;DHT22;49822;41.468;13.560;2022-09-14T09:30:39;25.30;54.00
63317;DHT22;49822;41.468;13.560;2022-09-14T09:33:20;25.40;54.30
63317;DHT22;49822;41.468;13.560;2022-09-14T09:36:13;25.80;53.00
63317;DHT22;49822;41.468;13.560;2022-09-14T09:38:41;26.00;51.90
63317;DHT22;49822;41.468;13.560;2022-09-14T09:41:29;26.10;53.20
63317;DHT22;49822;41.468;13.560;2022-09-14T09:44:05;26.00;53.00
63317;DHT22;49822;41.468;13.560;2022-09-14T09:49:32;26.30;53.30
63317;DHT22;49822;41.468;13.560;2022-09-14T09:52:14;26.60;51.10
63317;DHT22;49822;41.468;13.560;2022-09-14T09:54:49;26.20;50.30
63317;DHT22;49822;41.468;13.560;2022-09-14T09:57:34;26.00;51.60
63317;DHT22;49822;41.468;13.560;2022-09-14T10:00:19;26.20;52.30
63317;DHT22;49822;41.468;13.560;2022-09-14T10:02:54;26.60;51.80
63317;DHT22;49822;41.468;13.560;2022-09-14T10:05:28;27.00;50.10
63317;DHT22;49822;41.468;13.560;2022-09-14T10:08:00;27.20;50.70
63317;DHT22;49822;41.468;13.560;2022-09-14T10:13:04;27.00;50.70
63317;DHT22;49822;41.468;13.560;2022-09-14T10:15:32;27.10;50.40
63317;DHT22;49822;41.468;13.560;2022-09-14T10:21:05;27.50;49.40
63317;DHT22;49822;41.468;13.560;2022-09-14T10:23:36;27.40;50.00
63317;DHT22;49822;41.468;13.560;2022-09-14T10:28:45;27.70;50.00
63317;DHT22;49822;41.468;13.560;2022-09-14T10:33:54;27.40;51.60
63317;DHT22;49822;41.468;13.560;2022-09-14T10:36:40;27.10;49.80
63317;DHT22;49822;41.468;13.560;2022-09-14T10:39:20;27.10;51.20
63317;DHT22;49822;41.468;13.560;2022-09-14T10:41:54;27.40;52.70
63317;DHT22;49822;41.468;13.560;2022-09-14T11:04:35;29.20;46.60
63317;DHT22;49822;41.468;13.560;2022-09-14T11:09:57;28.20;45.30
63317;DHT22;49822;41.468;13.560;2022-09-14T11:12:38;28.00;46.00
63317;DHT22;49822;41.468;13.560;2022-09-14T11:15:18;27.90;47.10
63317;DHT22;49822;41.468;13.560;2022-09-14T11:20:48;27.70;48.80
63317;DHT22;49822;41.468;13.560;2022-09-14T11:26:14;27.80;47.10
63317;DHT22;49822;41.468;13.560;2022-09-14T11:28:52;27.80;47.40
63317;DHT22;49822;41.468;13.560;2022-09-14T11:31:24;27.80;44.80
63317;DHT22;49822;41.468;13.560;2022-09-14T11:34:03;27.70;45.50
63317;DHT22;49822;41.468;13.560;2022-09-14T11:36:39;28.00;45.90
63317;DHT22;49822;41.468;13.560;2022-09-14T11:44:13;27.70;45.50
63317;DHT22;49822;41.468;13.560;2022-09-14T11:46:47;27.80;47.20
63317;DHT22;49822;41.468;13.560;2022-09-14T11:49:24;27.90;47.70
63317;DHT22;49822;41.468;13.560;2022-09-14T11:51:55;27.80;46.90
63317;DHT22;49822;41.468;13.560;2022-09-14T11:54:24;27.90;47.90
63317;DHT22;49822;41.468;13.560;2022-09-14T11:57:02;27.80;47.10
63317;DHT22;49822;41.468;13.560;2022-09-14T12:12:54;28.00;47.70
63317;DHT22;49822;41.468;13.560;2022-09-14T12:20:45;27.90;48.00
63317;DHT22;49822;41.468;13.560;2022-09-14T12:34:17;28.00;48.90
63317;DHT22;49822;41.468;13.560;2022-09-14T12:37:27;27.90;49.00
63317;DHT22;49822;41.468;13.560;2022-09-14T12:40:32;27.90;49.80
63317;DHT22;49822;41.468;13.560;2022-09-14T12:51:46;27.90;51.10
63317;DHT22;49822;41.468;13.560;2022-09-14T12:54:47;28.20;47.80
63317;DHT22;49822;41.468;13.560;2022-09-14T12:57:34;28.10;50.70
63317;DHT22;49822;41.468;13.560;2022-09-14T13:00:14;28.40;48.70
63317;DHT22;49822;41.468;13.560;2022-09-14T13:05:34;28.20;50.50
63317;DHT22;49822;41.468;13.560;2022-09-14T13:08:08;28.10;49.60
63317;DHT22;49822;41.468;13.560;2022-09-14T13:10:44;28.10;50.40
63317;DHT22;49822;41.468;13.560;2022-09-14T13:13:27;28.40;49.60
63317;DHT22;49822;41.468;13.560;2022-09-14T13:16:03;28.10;50.40
63317;DHT22;49822;41.468;13.560;2022-09-14T13:18:37;27.90;51.40
63317;DHT22;49822;41.468;13.560;2022-09-14T13:21:22;28.00;51.20
63317;DHT22;49822;41.468;13.560;2022-09-14T13:23:51;27.80;51.40
63317;DHT22;49822;41.468;13.560;2022-09-14T13:26:30;27.80;51.90
63317;DHT22;49822;41.468;13.560;2022-09-14T13:29:00;27.90;52.50
63317;DHT22;49822;41.468;13.560;2022-09-14T13:31:34;28.00;53.30
63317;DHT22;49822;41.468;13.560;2022-09-14T13:34:03;28.00;52.00
63317;DHT22;49822;41.468;13.560;2022-09-14T13:36:42;28.00;53.90
63317;DHT22;49822;41.468;13.560;2022-09-14T13:39:29;28.20;52.30
63317;DHT22;49822;41.468;13.560;2022-09-14T13:41:58;28.10;51.90
63317;DHT22;49822;41.468;13.560;2022-09-14T13:44:40;28.00;52.10
63317;DHT22;49822;41.468;13.560;2022-09-14T13:47:15;28.00;52.10
63317;DHT22;49822;41.468;13.560;2022-09-14T13:49:45;27.80;53.70
63317;DHT22;49822;41.468;13.560;2022-09-14T13:55:20;27.80;52.60
63317;DHT22;49822;41.468;13.560;2022-09-14T13:58:12;27.80;53.60
63317;DHT22;49822;41.468;13.560;2022-09-14T14:00:51;27.80;53.30
63317;DHT22;49822;41.468;13.560;2022-09-14T14:03:48;27.80;53.80
63317;DHT22;49822;41.468;13.560;2022-09-14T14:06:26;27.70;53.90
63317;DHT22;49822;41.468;13.560;2022-09-14T14:09:04;27.70;54.10
63317;DHT22;49822;41.468;13.560;2022-09-14T14:11:38;27.80;54.60
63317;DHT22;49822;41.468;13.560;2022-09-14T14:19:40;27.80;54.60
63317;DHT22;49822;41.468;13.560;2022-09-14T14:24:41;27.60;54.30
63317;DHT22;49822;41.468;13.560;2022-09-14T14:27:39;27.60;54.70
63317;DHT22;49822;41.468;13.560;2022-09-14T14:30:16;27.70;54.80
63317;DHT22;49822;41.468;13.560;2022-09-14T14:32:54;27.50;55.20
63317;DHT22;49822;41.468;13.560;2022-09-14T14:35:24;27.70;55.50
63317;DHT22;49822;41.468;13.560;2022-09-14T14:37:51;27.80;54.60
63317;DHT22;49822;41.468;13.560;2022-09-14T14:40:21;27.80;54.70
63317;DHT22;49822;41.468;13.560;2022-09-14T14:42:49;27.70;55.00
63317;DHT22;49822;41.468;13.560;2022-09-14T14:45:22;27.50;55.90
63317;DHT22;49822;41.468;13.560;2022-09-14T14:48:03;27.40;56.20
63317;DHT22;49822;41.468;13.560;2022-09-14T14:50:32;27.40;56.00
63317;DHT22;49822;41.468;13.560;2022-09-14T14:53:01;27.30;56.20
63317;DHT22;49822;41.468;13.560;2022-09-14T14:55:28;27.20;57.70
63317;DHT22;49822;41.468;13.560;2022-09-14T14:58:02;27.10;56.70
63317;DHT22;49822;41.468;13.560;2022-09-14T15:00:36;27.10;57.50
63317;DHT22;49822;41.468;13.560;2022-09-14T15:03:07;27.20;57.30
63317;DHT22;49822;41.468;13.560;2022-09-14T15:05:42;27.20;57.10
63317;DHT22;49822;41.468;13.560;2022-09-14T15:08:12;27.10;57.10
63317;DHT22;49822;41.468;13.560;2022-09-14T15:10:40;27.10;57.90
63317;DHT22;49822;41.468;13.560;2022-09-14T15:13:09;27.10;58.00
63317;DHT22;49822;41.468;13.560;2022-09-14T15:15:39;27.00;57.80
63317;DHT22;49822;41.468;13.560;2022-09-14T15:18:13;26.90;57.90
63317;DHT22;49822;41.468;13.560;2022-09-14T15:20:40;26.80;58.60
63317;DHT22;49822;41.468;13.560;2022-09-14T15:23:10;26.80;58.40
63317;DHT22;49822;41.468;13.560;2022-09-14T15:25:38;26.80;58.40
63317;DHT22;49822;41.468;13.560;2022-09-14T15:28:06;26.70;58.60
63317;DHT22;49822;41.468;13.560;2022-09-14T15:30:37;26.60;59.20
63317;DHT22;49822;41.468;13.560;2022-09-14T15:33:12;26.60;59.30
63317;DHT22;49822;41.468;13.560;2022-09-14T15:35:39;26.70;58.70
63317;DHT22;49822;41.468;13.560;2022-09-14T15:38:06;26.60;59.20
63317;DHT22;49822;41.468;13.560;2022-09-14T15:40:34;26.60;59.10
63317;DHT22;49822;41.468;13.560;2022-09-14T15:43:02;26.60;59.90
63317;DHT22;49822;41.468;13.560;2022-09-14T15:45:34;26.60;59.30
63317;DHT22;49822;41.468;13.560;2022-09-14T15:48:16;26.50;59.90
63317;DHT22;49822;41.468;13.560;2022-09-14T15:50:46;26.30;59.90
63317;DHT22;49822;41.468;13.560;2022-09-14T15:53:14;26.20;60.10
63317;DHT22;49822;41.468;13.560;2022-09-14T15:55:43;26.20;59.90
63317;DHT22;49822;41.468;13.560;2022-09-14T15:58:11;26.20;60.00
63317;DHT22;49822;41.468;13.560;2022-09-14T16:00:42;26.10;60.10
63317;DHT22;49822;41.468;13.560;2022-09-14T16:03:11;26.10;60.40
63317;DHT22;49822;41.468;13.560;2022-09-14T16:05:39;26.10;60.10
63317;DHT22;49822;41.468;13.560;2022-09-14T16:08:06;26.00;60.40
63317;DHT22;49822;41.468;13.560;2022-09-14T16:10:34;26.00;60.60
63317;DHT22;49822;41.468;13.560;2022-09-14T16:13:01;26.00;59.90
63317;DHT22;49822;41.468;13.560;2022-09-14T16:15:32;26.00;60.10
63317;DHT22;49822;41.468;13.560;2022-09-14T16:18:06;26.00;60.50
63317;DHT22;49822;41.468;13.560;2022-09-14T16:20:34;25.80;61.40
63317;DHT22;49822;41.468;13.560;2022-09-14T16:23:02;25.60;61.50
63317;DHT22;49822;41.468;13.560;2022-09-14T16:25:35;25.50;62.10
63317;DHT22;49822;41.468;13.560;2022-09-14T16:28:08;25.40;62.40
63317;DHT22;49822;41.468;13.560;2022-09-14T16:30:37;25.30;62.50
63317;DHT22;49822;41.468;13.560;2022-09-14T16:33:07;25.30;62.80
63317;DHT22;49822;41.468;13.560;2022-09-14T16:35:35;25.20;62.90
63317;DHT22;49822;41.468;13.560;2022-09-14T16:38:02;25.10;62.90
63317;DHT22;49822;41.468;13.560;2022-09-14T16:40:30;25.00;63.20
63317;DHT22;49822;41.468;13.560;2022-09-14T16:43:00;25.00;63.00
63317;DHT22;49822;41.468;13.560;2022-09-14T16:45:33;25.00;62.90
63317;DHT22;49822;41.468;13.560;2022-09-14T16:48:08;25.00;63.30
63317;DHT22;49822;41.468;13.560;2022-09-14T16:50:36;25.00;63.40
63317;DHT22;49822;41.468;13.560;2022-09-14T16:53:03;24.80;63.50
63317;DHT22;49822;41.468;13.560;2022-09-14T16:55:31;24.80;63.60
63317;DHT22;49822;41.468;13.560;2022-09-14T16:57:59;24.80;63.50
63317;DHT22;49822;41.468;13.560;2022-09-14T17:00:27;24.70;63.40
63317;DHT22;49822;41.468;13.560;2022-09-14T17:02:58;24.70;63.70
63317;DHT22;49822;41.468;13.560;2022-09-14T17:05:26;24.60;64.20
63317;DHT22;49822;41.468;13.560;2022-09-14T17:07:53;24.60;64.10
63317;DHT22;49822;41.468;13.560;2022-09-14T17:10:21;24.50;64.40
63317;DHT22;49822;41.468;13.560;2022-09-14T17:12:49;24.50;64.20
63317;DHT22;49822;41.468;13.560;2022-09-14T17:15:20;24.50;63.90
63317;DHT22;49822;41.468;13.560;2022-09-14T17:18:00;24.50;64.20
63317;DHT22;49822;41.468;13.560;2022-09-14T17:20:29;24.40;63.90
63317;DHT22;49822;41.468;13.560;2022-09-14T17:22:56;24.40;64.10
63317;DHT22;49822;41.468;13.560;2022-09-14T17:25:24;24.40;64.30
63317;DHT22;49822;41.468;13.560;2022-09-14T17:27:51;24.40;64.10
63317;DHT22;49822;41.468;13.560;2022-09-14T17:30:24;24.40;64.20
63317;DHT22;49822;41.468;13.560;2022-09-14T17:33:02;24.20;64.40
63317;DHT22;49822;41.468;13.560;2022-09-14T17:35:30;24.20;64.60
63317;DHT22;49822;41.468;13.560;2022-09-14T17:37:57;24.20;64.70
63317;DHT22;49822;41.468;13.560;2022-09-14T17:40:25;24.20;64.70
63317;DHT22;49822;41.468;13.560;2022-09-14T17:42:52;24.10;65.00
63317;DHT22;49822;41.468;13.560;2022-09-14T17:45:20;24.10;64.80
63317;DHT22;49822;41.468;13.560;2022-09-14T17:47:47;24.10;64.70
63317;DHT22;49822;41.468;13.560;2022-09-14T17:50:15;24.20;64.60
63317;DHT22;49822;41.468;13.560;2022-09-14T17:52:45;24.10;65.00
63317;DHT22;49822;41.468;13.560;2022-09-14T17:55:12;24.10;64.80
63317;DHT22;49822;41.468;13.560;2022-09-14T17:57:40;24.00;64.90
63317;DHT22;49822;41.468;13.560;2022-09-14T18:00:08;24.00;65.00
63317;DHT22;49822;41.468;13.560;2022-09-14T18:02:36;24.00;65.20
63317;DHT22;49822;41.468;13.560;2022-09-14T18:05:04;24.00;65.40
63317;DHT22;49822;41.468;13.560;2022-09-14T18:07:32;23.90;65.80
63317;DHT22;49822;41.468;13.560;2022-09-14T18:10:00;23.80;66.00
63317;DHT22;49822;41.468;13.560;2022-09-14T18:12:32;23.60;66.20